Terminal Aerodrome Forecast
Issued by NWS Cleveland, OH

Home | Current Version | Previous Version | Graphics & Text | Print | Product List | Glossary On
Versions: 1 2 3 4 5 6 7 8 9 10 11 12 13 14 15 16 17 18
000
FTUS41 KCLE 240500
TAFTOL
TAF
KTOL 240540Z 2406/2506 16003KT P6SM SCT250
     FM241400 18008KT P6SM BKN250
     FM241800 20008KT P6SM BKN120 OVC250
     FM242300 16006KT P6SM BKN080 OVC120=

USA.gov is the U.S. government's official web portal to all federal, state and local government web resources and services.